sensor_id;sensor_type;location;lat;lon;timestamp;pressure;altitude;pressure_sealevel;temperature;humidity
75991;BME280;64673;52.276;10.560;2023-07-02T00:00:33;99704.38;;;16.03;92.86
75991;BME280;64673;52.276;10.560;2023-07-02T00:03:00;99704.78;;;16.14;92.54
75991;BME280;64673;52.276;10.560;2023-07-02T00:05:26;99693.16;;;16.04;92.22
75991;BME280;64673;52.276;10.560;2023-07-02T00:07:51;99696.69;;;16.05;92.45
75991;BME280;64673;52.276;10.560;2023-07-02T00:10:17;99694.94;;;16.00;92.77
75991;BME280;64673;52.276;10.560;2023-07-02T00:12:42;99692.69;;;16.02;92.66
75991;BME280;64673;52.276;10.560;2023-07-02T00:15:09;99693.97;;;16.05;92.31
75991;BME280;64673;52.276;10.560;2023-07-02T00:17:35;99685.63;;;16.10;91.91
75991;BME280;64673;52.276;10.560;2023-07-02T00:20:08;99687.41;;;16.06;91.43
75991;BME280;64673;52.276;10.560;2023-07-02T00:22:39;99690.44;;;16.04;92.08
75991;BME280;64673;52.276;10.560;2023-07-02T00:25:07;99699.56;;;16.00;91.45
75991;BME280;64673;52.276;10.560;2023-07-02T00:27:33;99694.66;;;15.93;91.79
75991;BME280;64673;52.276;10.560;2023-07-02T00:29:58;99708.06;;;15.98;91.70
75991;BME280;64673;52.276;10.560;2023-07-02T00:32:23;99714.16;;;15.95;91.93
75991;BME280;64673;52.276;10.560;2023-07-02T00:34:49;99705.84;;;15.92;92.00
75991;BME280;64673;52.276;10.560;2023-07-02T00:37:14;99712.56;;;15.94;92.43
75991;BME280;64673;52.276;10.560;2023-07-02T00:39:40;99709.88;;;15.86;92.45
75991;BME280;64673;52.276;10.560;2023-07-02T00:42:05;99698.81;;;15.91;92.14
75991;BME280;64673;52.276;10.560;2023-07-02T00:44:31;99707.97;;;15.86;92.81
75991;BME280;64673;52.276;10.560;2023-07-02T00:46:57;99715.00;;;15.87;92.50
75991;BME280;64673;52.276;10.560;2023-07-02T00:49:22;99720.28;;;15.84;92.28
75991;BME280;64673;52.276;10.560;2023-07-02T00:51:48;99721.69;;;15.90;91.95
75991;BME280;64673;52.276;10.560;2023-07-02T00:54:14;99720.88;;;15.89;91.72
75991;BME280;64673;52.276;10.560;2023-07-02T00:56:39;99712.28;;;15.87;91.62
75991;BME280;64673;52.276;10.560;2023-07-02T00:59:05;99710.69;;;15.86;91.66
75991;BME280;64673;52.276;10.560;2023-07-02T01:01:32;99707.47;;;15.84;91.29
75991;BME280;64673;52.276;10.560;2023-07-02T01:04:04;99705.25;;;15.86;90.75
75991;BME280;64673;52.276;10.560;2023-07-02T01:06:35;99691.47;;;15.83;90.84
75991;BME280;64673;52.276;10.560;2023-07-02T01:09:03;99688.94;;;15.86;90.02
75991;BME280;64673;52.276;10.560;2023-07-02T01:11:43;99693.72;;;15.81;89.91
75991;BME280;64673;52.276;10.560;2023-07-02T01:14:44;99694.41;;;15.78;89.34
75991;BME280;64673;52.276;10.560;2023-07-02T01:17:10;99692.59;;;15.82;88.42
75991;BME280;64673;52.276;10.560;2023-07-02T01:19:44;99688.59;;;15.79;87.36
75991;BME280;64673;52.276;10.560;2023-07-02T01:22:11;99697.91;;;15.78;87.64
75991;BME280;64673;52.276;10.560;2023-07-02T01:24:39;99698.69;;;15.79;86.49
75991;BME280;64673;52.276;10.560;2023-07-02T01:27:04;99697.59;;;15.71;86.50
75991;BME280;64673;52.276;10.560;2023-07-02T01:29:30;99685.91;;;15.70;86.16
75991;BME280;64673;52.276;10.560;2023-07-02T01:31:56;99705.09;;;15.74;85.94
75991;BME280;64673;52.276;10.560;2023-07-02T01:34:22;99705.75;;;15.71;86.49
75991;BME280;64673;52.276;10.560;2023-07-02T01:36:47;99703.84;;;15.71;85.50
75991;BME280;64673;52.276;10.560;2023-07-02T01:39:13;99706.06;;;15.69;84.86
75991;BME280;64673;52.276;10.560;2023-07-02T01:41:52;99713.13;;;15.62;84.89
75991;BME280;64673;52.276;10.560;2023-07-02T01:44:18;99717.16;;;15.56;85.28
75991;BME280;64673;52.276;10.560;2023-07-02T01:46:44;99709.31;;;15.54;85.45
75991;BME280;64673;52.276;10.560;2023-07-02T01:49:14;99711.53;;;15.52;84.69
75991;BME280;64673;52.276;10.560;2023-07-02T01:51:39;99707.53;;;15.50;84.89
75991;BME280;64673;52.276;10.560;2023-07-02T01:54:04;99714.75;;;15.46;85.31
75991;BME280;64673;52.276;10.560;2023-07-02T01:56:30;99715.69;;;15.41;85.51
75991;BME280;64673;52.276;10.560;2023-07-02T01:58:55;99708.38;;;15.33;85.85
75991;BME280;64673;52.276;10.560;2023-07-02T02:01:21;99707.72;;;15.36;85.92
75991;BME280;64673;52.276;10.560;2023-07-02T02:03:46;99705.34;;;15.34;86.44
75991;BME280;64673;52.276;10.560;2023-07-02T02:06:11;99701.16;;;15.28;86.34
75991;BME280;64673;52.276;10.560;2023-07-02T02:08:37;99703.88;;;15.28;86.57
75991;BME280;64673;52.276;10.560;2023-07-02T02:11:02;99700.69;;;15.26;85.88
75991;BME280;64673;52.276;10.560;2023-07-02T02:13:28;99700.88;;;15.21;87.24
75991;BME280;64673;52.276;10.560;2023-07-02T02:15:54;99706.78;;;15.23;86.51
75991;BME280;64673;52.276;10.560;2023-07-02T02:18:19;99710.91;;;15.29;86.48
75991;BME280;64673;52.276;10.560;2023-07-02T02:20:45;99715.88;;;15.19;87.33
75991;BME280;64673;52.276;10.560;2023-07-02T02:23:10;99719.56;;;15.14;87.61
75991;BME280;64673;52.276;10.560;2023-07-02T02:25:36;99718.91;;;15.17;87.85
75991;BME280;64673;52.276;10.560;2023-07-02T02:28:01;99723.53;;;15.17;87.80
75991;BME280;64673;52.276;10.560;2023-07-02T02:30:26;99723.53;;;15.08;87.86
75991;BME280;64673;52.276;10.560;2023-07-02T02:32:51;99725.31;;;15.04;88.24
75991;BME280;64673;52.276;10.560;2023-07-02T02:35:17;99728.97;;;14.91;89.07
75991;BME280;64673;52.276;10.560;2023-07-02T02:37:42;99740.34;;;15.01;88.79
75991;BME280;64673;52.276;10.560;2023-07-02T02:40:08;99740.66;;;15.00;87.82
75991;BME280;64673;52.276;10.560;2023-07-02T02:42:36;99739.66;;;14.87;89.24
75991;BME280;64673;52.276;10.560;2023-07-02T02:45:02;99740.47;;;14.88;89.02
75991;BME280;64673;52.276;10.560;2023-07-02T02:47:27;99740.47;;;14.88;89.21
75991;BME280;64673;52.276;10.560;2023-07-02T02:49:53;99742.06;;;14.80;89.26
75991;BME280;64673;52.276;10.560;2023-07-02T02:52:18;99740.47;;;14.88;89.18
75991;BME280;64673;52.276;10.560;2023-07-02T02:54:45;99739.84;;;14.91;88.81
75991;BME280;64673;52.276;10.560;2023-07-02T02:57:10;99738.25;;;14.90;88.51
75991;BME280;64673;52.276;10.560;2023-07-02T02:59:36;99734.56;;;14.94;88.69
75991;BME280;64673;52.276;10.560;2023-07-02T03:02:01;99736.31;;;14.99;87.73
75991;BME280;64673;52.276;10.560;2023-07-02T03:04:26;99736.81;;;14.92;88.29
75991;BME280;64673;52.276;10.560;2023-07-02T03:06:52;99733.94;;;14.97;87.34
75991;BME280;64673;52.276;10.560;2023-07-02T03:09:18;99738.09;;;15.04;87.75
75991;BME280;64673;52.276;10.560;2023-07-02T03:11:44;99730.91;;;14.99;87.76
75991;BME280;64673;52.276;10.560;2023-07-02T03:14:09;99742.06;;;15.06;87.46
75991;BME280;64673;52.276;10.560;2023-07-02T03:16:35;99728.19;;;15.08;87.07
75991;BME280;64673;52.276;10.560;2023-07-02T03:19:00;99728.66;;;15.01;87.96
75991;BME280;64673;52.276;10.560;2023-07-02T03:21:25;99733.59;;;15.08;88.01
75991;BME280;64673;52.276;10.560;2023-07-02T03:23:51;99742.06;;;15.06;87.16
75991;BME280;64673;52.276;10.560;2023-07-02T03:26:16;99732.00;;;15.07;87.45
75991;BME280;64673;52.276;10.560;2023-07-02T03:28:42;99732.34;;;15.14;86.97
75991;BME280;64673;52.276;10.560;2023-07-02T03:31:07;99732.19;;;15.10;87.75
75991;BME280;64673;52.276;10.560;2023-07-02T03:33:32;99723.72;;;15.12;87.55
75991;BME280;64673;52.276;10.560;2023-07-02T03:35:58;99727.84;;;15.18;87.96
75991;BME280;64673;52.276;10.560;2023-07-02T03:38:24;99724.19;;;15.05;87.60
75991;BME280;64673;52.276;10.560;2023-07-02T03:40:49;99729.16;;;15.20;87.16
75991;BME280;64673;52.276;10.560;2023-07-02T03:43:14;99727.53;;;15.19;87.41
75991;BME280;64673;52.276;10.560;2023-07-02T03:45:40;99723.41;;;15.22;87.52
75991;BME280;64673;52.276;10.560;2023-07-02T03:48:05;99729.94;;;15.21;88.22
75991;BME280;64673;52.276;10.560;2023-07-02T03:50:30;99727.38;;;15.16;88.35
75991;BME280;64673;52.276;10.560;2023-07-02T03:52:56;99735.06;;;15.22;88.35
75991;BME280;64673;52.276;10.560;2023-07-02T03:55:21;99737.94;;;15.17;88.44
75991;BME280;64673;52.276;10.560;2023-07-02T03:57:46;99732.50;;;15.17;88.94
75991;BME280;64673;52.276;10.560;2023-07-02T04:00:12;99728.81;;;15.22;88.41
75991;BME280;64673;52.276;10.560;2023-07-02T04:02:37;99734.56;;;15.20;88.78
75991;BME280;64673;52.276;10.560;2023-07-02T04:05:03;99734.75;;;15.24;88.73
75991;BME280;64673;52.276;10.560;2023-07-02T04:07:29;99734.88;;;15.27;87.99
75991;BME280;64673;52.276;10.560;2023-07-02T04:09:55;99730.09;;;15.24;88.09
75991;BME280;64673;52.276;10.560;2023-07-02T04:12:20;99734.41;;;15.34;87.91
75991;BME280;64673;52.276;10.560;2023-07-02T04:14:45;99739.88;;;15.25;88.13
75991;BME280;64673;52.276;10.560;2023-07-02T04:17:11;99741.28;;;15.31;88.48
75991;BME280;64673;52.276;10.560;2023-07-02T04:19:36;99740.31;;;15.27;88.41
75991;BME280;64673;52.276;10.560;2023-07-02T04:22:01;99752.31;;;15.44;87.55
75991;BME280;64673;52.276;10.560;2023-07-02T04:24:27;99757.88;;;15.47;87.49
75991;BME280;64673;52.276;10.560;2023-07-02T04:26:53;99744.31;;;15.38;88.70
75991;BME280;64673;52.276;10.560;2023-07-02T04:29:18;99743.66;;;15.42;87.53
75991;BME280;64673;52.276;10.560;2023-07-02T04:31:44;99747.81;;;15.39;87.86
75991;BME280;64673;52.276;10.560;2023-07-02T04:34:09;99748.00;;;15.43;87.61
75991;BME280;64673;52.276;10.560;2023-07-02T04:36:34;99744.47;;;15.42;88.52
75991;BME280;64673;52.276;10.560;2023-07-02T04:39:00;99745.75;;;15.45;87.49
75991;BME280;64673;52.276;10.560;2023-07-02T04:41:26;99753.09;;;15.44;87.50
75991;BME280;64673;52.276;10.560;2023-07-02T04:43:52;99764.13;;;15.48;87.56
75991;BME280;64673;52.276;10.560;2023-07-02T04:46:17;99758.38;;;15.41;87.25
75991;BME280;64673;52.276;10.560;2023-07-02T04:48:43;99761.75;;;15.46;87.35
75991;BME280;64673;52.276;10.560;2023-07-02T04:51:08;99760.94;;;15.46;87.06
75991;BME280;64673;52.276;10.560;2023-07-02T04:53:33;99762.53;;;15.47;87.53
75991;BME280;64673;52.276;10.560;2023-07-02T04:55:59;99765.41;;;15.42;88.03
75991;BME280;64673;52.276;10.560;2023-07-02T04:58:24;99768.63;;;15.44;88.13
75991;BME280;64673;52.276;10.560;2023-07-02T05:00:50;99766.84;;;15.39;88.64
75991;BME280;64673;52.276;10.560;2023-07-02T05:03:15;99770.84;;;15.42;89.43
75991;BME280;64673;52.276;10.560;2023-07-02T05:05:40;99773.41;;;15.29;90.72
75991;BME280;64673;52.276;10.560;2023-07-02T05:08:05;99768.44;;;15.40;90.69
75991;BME280;64673;52.276;10.560;2023-07-02T05:10:31;99772.13;;;15.35;90.79
75991;BME280;64673;52.276;10.560;2023-07-02T05:12:56;99764.00;;;15.35;91.08
75991;BME280;64673;52.276;10.560;2023-07-02T05:15:23;99763.66;;;15.28;91.41
75991;BME280;64673;52.276;10.560;2023-07-02T05:17:48;99772.47;;;15.25;92.57
75991;BME280;64673;52.276;10.560;2023-07-02T05:20:14;99765.44;;;15.24;92.89
75991;BME280;64673;52.276;10.560;2023-07-02T05:22:39;99774.97;;;14.96;95.03
75991;BME280;64673;52.276;10.560;2023-07-02T05:25:05;99774.97;;;14.96;96.92
75991;BME280;64673;52.276;10.560;2023-07-02T05:27:30;99773.97;;;14.75;98.16
75991;BME280;64673;52.276;10.560;2023-07-02T05:29:56;99762.38;;;14.43;89.77
75991;BME280;64673;52.276;10.560;2023-07-02T05:32:21;99762.78;;;14.19;88.24
75991;BME280;64673;52.276;10.560;2023-07-02T05:34:47;99774.84;;;13.82;91.29
75991;BME280;64673;52.276;10.560;2023-07-02T05:37:12;99768.88;;;13.72;93.05
75991;BME280;64673;52.276;10.560;2023-07-02T05:39:37;99775.41;;;13.71;93.24
75991;BME280;64673;52.276;10.560;2023-07-02T05:42:03;99778.81;;;13.76;92.53
75991;BME280;64673;52.276;10.560;2023-07-02T05:44:29;99780.22;;;13.74;90.91
75991;BME280;64673;52.276;10.560;2023-07-02T05:46:54;99783.97;;;13.64;92.88
75991;BME280;64673;52.276;10.560;2023-07-02T05:49:20;99786.38;;;13.66;91.79
75991;BME280;64673;52.276;10.560;2023-07-02T05:51:45;99782.72;;;13.70;93.53
75991;BME280;64673;52.276;10.560;2023-07-02T05:54:10;99787.19;;;13.66;92.47
75991;BME280;64673;52.276;10.560;2023-07-02T05:56:36;99778.56;;;13.64;94.16
75991;BME280;64673;52.276;10.560;2023-07-02T05:59:01;99780.47;;;13.86;94.72
75991;BME280;64673;52.276;10.560;2023-07-02T06:01:26;99769.06;;;13.75;94.66
75991;BME280;64673;52.276;10.560;2023-07-02T06:03:52;99776.44;;;13.83;94.72
75991;BME280;64673;52.276;10.560;2023-07-02T06:06:17;99787.78;;;13.85;96.08
75991;BME280;64673;52.276;10.560;2023-07-02T06:08:42;99792.56;;;13.88;95.22
75991;BME280;64673;52.276;10.560;2023-07-02T06:11:09;99794.66;;;13.91;94.47
75991;BME280;64673;52.276;10.560;2023-07-02T06:13:35;99800.59;;;13.93;94.59
75991;BME280;64673;52.276;10.560;2023-07-02T06:16:00;99803.78;;;13.96;94.53
75991;BME280;64673;52.276;10.560;2023-07-02T06:18:25;99804.03;;;14.08;94.51
75991;BME280;64673;52.276;10.560;2023-07-02T06:20:51;99803.28;;;13.93;94.85
75991;BME280;64673;52.276;10.560;2023-07-02T06:23:16;99802.84;;;14.00;94.62
75991;BME280;64673;52.276;10.560;2023-07-02T06:25:42;99809.00;;;14.14;93.11
75991;BME280;64673;52.276;10.560;2023-07-02T06:28:07;99808.41;;;14.26;93.91
75991;BME280;64673;52.276;10.560;2023-07-02T06:30:32;99809.53;;;14.25;95.00
75991;BME280;64673;52.276;10.560;2023-07-02T06:32:58;99800.78;;;14.28;91.37
75991;BME280;64673;52.276;10.560;2023-07-02T06:35:23;99807.41;;;14.44;92.79
75991;BME280;64673;52.276;10.560;2023-07-02T06:37:48;99815.84;;;14.43;91.61
75991;BME280;64673;52.276;10.560;2023-07-02T06:40:14;99832.56;;;14.36;90.23
75991;BME280;64673;52.276;10.560;2023-07-02T06:42:39;99820.25;;;14.30;91.21
75991;BME280;64673;52.276;10.560;2023-07-02T06:45:05;99824.50;;;14.22;88.93
75991;BME280;64673;52.276;10.560;2023-07-02T06:47:31;99820.69;;;14.23;91.36
75991;BME280;64673;52.276;10.560;2023-07-02T06:49:56;99830.22;;;14.21;92.43
75991;BME280;64673;52.276;10.560;2023-07-02T06:52:22;99827.94;;;14.37;90.94
75991;BME280;64673;52.276;10.560;2023-07-02T06:54:47;99827.38;;;14.48;90.49
75991;BME280;64673;52.276;10.560;2023-07-02T06:57:13;99832.56;;;14.67;92.37
75991;BME280;64673;52.276;10.560;2023-07-02T06:59:38;99828.91;;;14.72;90.92
75991;BME280;64673;52.276;10.560;2023-07-02T07:02:04;99834.34;;;14.72;91.82
75991;BME280;64673;52.276;10.560;2023-07-02T07:04:29;99833.25;;;14.81;90.30
75991;BME280;64673;52.276;10.560;2023-07-02T07:06:55;99830.56;;;14.90;88.79
75991;BME280;64673;52.276;10.560;2023-07-02T07:09:21;99831.22;;;15.04;89.43
75991;BME280;64673;52.276;10.560;2023-07-02T07:11:46;99835.72;;;15.17;88.47
75991;BME280;64673;52.276;10.560;2023-07-02T07:14:12;99840.19;;;15.30;88.17
75991;BME280;64673;52.276;10.560;2023-07-02T07:16:37;99841.97;;;15.35;85.43
75991;BME280;64673;52.276;10.560;2023-07-02T07:19:02;99845.00;;;15.33;85.90
75991;BME280;64673;52.276;10.560;2023-07-02T07:21:28;99853.66;;;15.53;85.14
75991;BME280;64673;52.276;10.560;2023-07-02T07:23:54;99849.34;;;15.69;86.48
75991;BME280;64673;52.276;10.560;2023-07-02T07:26:19;99854.00;;;15.77;85.69
75991;BME280;64673;52.276;10.560;2023-07-02T07:28:44;99856.72;;;15.77;82.16
75991;BME280;64673;52.276;10.560;2023-07-02T07:31:10;99850.00;;;15.83;81.44
75991;BME280;64673;52.276;10.560;2023-07-02T07:33:35;99841.19;;;15.86;77.80
75991;BME280;64673;52.276;10.560;2023-07-02T07:36:01;99866.00;;;15.85;79.80
75991;BME280;64673;52.276;10.560;2023-07-02T07:38:26;99858.16;;;15.83;80.40
75991;BME280;64673;52.276;10.560;2023-07-02T07:40:51;99850.13;;;15.95;80.51
75991;BME280;64673;52.276;10.560;2023-07-02T07:43:17;99871.56;;;16.05;79.45
75991;BME280;64673;52.276;10.560;2023-07-02T07:45:43;99867.03;;;16.27;79.67
75991;BME280;64673;52.276;10.560;2023-07-02T07:48:08;99863.81;;;16.42;80.59
75991;BME280;64673;52.276;10.560;2023-07-02T07:50:34;99875.34;;;16.39;79.95
75991;BME280;64673;52.276;10.560;2023-07-02T07:52:59;99868.28;;;16.38;80.36
75991;BME280;64673;52.276;10.560;2023-07-02T07:55:24;99873.19;;;16.53;78.43
75991;BME280;64673;52.276;10.560;2023-07-02T07:57:50;99869.97;;;16.60;78.91
75991;BME280;64673;52.276;10.560;2023-07-02T08:00:16;99869.13;;;16.76;78.46
75991;BME280;64673;52.276;10.560;2023-07-02T08:02:42;99877.31;;;16.76;77.72
75991;BME280;64673;52.276;10.560;2023-07-02T08:05:08;99868.06;;;16.98;79.27
75991;BME280;64673;52.276;10.560;2023-07-02T08:07:33;99878.63;;;17.00;76.12
75991;BME280;64673;52.276;10.560;2023-07-02T08:09:59;99875.81;;;16.88;76.68
75991;BME280;64673;52.276;10.560;2023-07-02T08:12:25;99888.78;;;16.91;73.88
75991;BME280;64673;52.276;10.560;2023-07-02T08:14:52;99874.78;;;17.01;73.90
75991;BME280;64673;52.276;10.560;2023-07-02T08:17:18;99881.56;;;16.95;69.86
75991;BME280;64673;52.276;10.560;2023-07-02T08:19:43;99879.34;;;17.17;70.07
75991;BME280;64673;52.276;10.560;2023-07-02T08:22:09;99895.94;;;17.04;67.36
75991;BME280;64673;52.276;10.560;2023-07-02T08:24:34;99898.97;;;17.02;65.51
75991;BME280;64673;52.276;10.560;2023-07-02T08:26:59;99892.47;;;16.95;65.13
75991;BME280;64673;52.276;10.560;2023-07-02T08:29:27;99889.44;;;17.17;65.66
75991;BME280;64673;52.276;10.560;2023-07-02T08:31:52;99879.63;;;17.25;65.54
75991;BME280;64673;52.276;10.560;2023-07-02T08:34:18;99898.38;;;17.26;66.68
75991;BME280;64673;52.276;10.560;2023-07-02T08:36:43;99896.16;;;17.19;66.91
75991;BME280;64673;52.276;10.560;2023-07-02T08:39:09;99917.53;;;17.09;63.59
75991;BME280;64673;52.276;10.560;2023-07-02T08:41:45;99907.53;;;17.22;63.28
75991;BME280;64673;52.276;10.560;2023-07-02T08:44:11;99921.19;;;17.42;62.04
75991;BME280;64673;52.276;10.560;2023-07-02T08:46:39;99923.53;;;17.52;62.33
75991;BME280;64673;52.276;10.560;2023-07-02T08:49:04;99916.59;;;17.64;62.11
75991;BME280;64673;52.276;10.560;2023-07-02T08:51:30;99902.56;;;17.74;62.42
75991;BME280;64673;52.276;10.560;2023-07-02T08:53:55;99922.13;;;17.76;62.45
75991;BME280;64673;52.276;10.560;2023-07-02T08:56:20;99942.28;;;17.54;61.29
75991;BME280;64673;52.276;10.560;2023-07-02T08:58:46;99919.09;;;17.48;60.77
75991;BME280;64673;52.276;10.560;2023-07-02T09:01:13;99928.56;;;17.71;62.02
75991;BME280;64673;52.276;10.560;2023-07-02T09:03:40;99932.88;;;17.72;59.93
75991;BME280;64673;52.276;10.560;2023-07-02T09:06:09;99924.59;;;17.89;57.82
75991;BME280;64673;52.276;10.560;2023-07-02T09:08:35;99935.53;;;17.81;56.24
75991;BME280;64673;52.276;10.560;2023-07-02T09:11:27;99930.69;;;17.86;56.60
75991;BME280;64673;52.276;10.560;2023-07-02T09:13:53;99935.69;;;17.84;56.19
75991;BME280;64673;52.276;10.560;2023-07-02T09:16:31;99926.50;;;18.10;55.86
75991;BME280;64673;52.276;10.560;2023-07-02T09:19:08;99932.81;;;18.35;55.16
75991;BME280;64673;52.276;10.560;2023-07-02T09:21:47;99941.13;;;18.05;53.62
75991;BME280;64673;52.276;10.560;2023-07-02T09:24:17;99943.19;;;18.08;55.10
75991;BME280;64673;52.276;10.560;2023-07-02T09:26:51;99935.41;;;18.19;53.30
75991;BME280;64673;52.276;10.560;2023-07-02T09:29:28;99922.50;;;18.07;53.56
75991;BME280;64673;52.276;10.560;2023-07-02T09:31:56;99943.59;;;17.77;53.28
75991;BME280;64673;52.276;10.560;2023-07-02T09:34:30;99944.97;;;17.63;55.77
75991;BME280;64673;52.276;10.560;2023-07-02T09:36:57;99942.81;;;17.47;54.68
75991;BME280;64673;52.276;10.560;2023-07-02T09:39:30;99951.00;;;17.47;55.12
75991;BME280;64673;52.276;10.560;2023-07-02T09:41:57;99967.69;;;17.46;56.33
75991;BME280;64673;52.276;10.560;2023-07-02T09:44:30;99950.53;;;17.75;55.47
75991;BME280;64673;52.276;10.560;2023-07-02T09:47:00;99946.59;;;18.05;55.60
75991;BME280;64673;52.276;10.560;2023-07-02T09:49:31;99936.72;;;18.13;57.60
75991;BME280;64673;52.276;10.560;2023-07-02T09:51:59;99945.09;;;18.28;55.86
75991;BME280;64673;52.276;10.560;2023-07-02T09:54:25;99946.59;;;18.59;55.47
75991;BME280;64673;52.276;10.560;2023-07-02T09:56:51;99936.84;;;18.82;54.13
75991;BME280;64673;52.276;10.560;2023-07-02T09:59:16;99951.72;;;18.60;52.96
75991;BME280;64673;52.276;10.560;2023-07-02T10:01:41;99970.25;;;18.34;52.76
75991;BME280;64673;52.276;10.560;2023-07-02T10:04:12;99957.25;;;17.98;51.22
75991;BME280;64673;52.276;10.560;2023-07-02T10:09:10;99961.66;;;18.23;52.43
75991;BME280;64673;52.276;10.560;2023-07-02T10:11:36;99956.44;;;18.51;53.58
75991;BME280;64673;52.276;10.560;2023-07-02T10:14:01;99950.59;;;18.41;51.76
75991;BME280;64673;52.276;10.560;2023-07-02T10:16:27;99941.75;;;18.56;50.86
75991;BME280;64673;52.276;10.560;2023-07-02T10:18:53;99959.94;;;18.73;51.11
75991;BME280;64673;52.276;10.560;2023-07-02T10:21:20;99953.22;;;18.70;48.73
75991;BME280;64673;52.276;10.560;2023-07-02T10:23:45;99964.84;;;18.79;50.30
75991;BME280;64673;52.276;10.560;2023-07-02T10:26:16;99956.53;;;18.88;49.30
75991;BME280;64673;52.276;10.560;2023-07-02T10:28:42;99961.81;;;18.93;48.62
75991;BME280;64673;52.276;10.560;2023-07-02T10:31:20;99971.34;;;18.87;48.00
75991;BME280;64673;52.276;10.560;2023-07-02T10:33:47;99985.03;;;18.54;45.83
75991;BME280;64673;52.276;10.560;2023-07-02T10:36:22;99969.06;;;18.56;44.78
75991;BME280;64673;52.276;10.560;2023-07-02T10:38:49;99969.97;;;18.81;45.12
75991;BME280;64673;52.276;10.560;2023-07-02T10:41:28;99955.56;;;19.05;47.16
75991;BME280;64673;52.276;10.560;2023-07-02T10:43:54;99986.06;;;19.07;45.30
75991;BME280;64673;52.276;10.560;2023-07-02T10:46:29;99963.06;;;19.08;46.67
75991;BME280;64673;52.276;10.560;2023-07-02T10:48:55;99948.84;;;19.14;48.04
75991;BME280;64673;52.276;10.560;2023-07-02T10:51:21;99980.31;;;18.75;46.56
75991;BME280;64673;52.276;10.560;2023-07-02T10:54:00;99956.06;;;18.74;46.22
75991;BME280;64673;52.276;10.560;2023-07-02T10:56:27;99988.84;;;18.74;46.73
75991;BME280;64673;52.276;10.560;2023-07-02T10:58:55;99957.94;;;19.06;46.91
75991;BME280;64673;52.276;10.560;2023-07-02T11:01:28;99965.59;;;19.25;45.78
75991;BME280;64673;52.276;10.560;2023-07-02T11:04:02;99960.31;;;19.44;44.37
75991;BME280;64673;52.276;10.560;2023-07-02T11:06:30;99961.69;;;19.74;45.67
75991;BME280;64673;52.276;10.560;2023-07-02T11:08:57;99966.81;;;19.39;44.58
75991;BME280;64673;52.276;10.560;2023-07-02T11:11:23;99969.09;;;19.13;44.17
75991;BME280;64673;52.276;10.560;2023-07-02T11:13:52;99997.19;;;18.89;44.22
75991;BME280;64673;52.276;10.560;2023-07-02T11:16:26;99980.34;;;18.99;45.40
75991;BME280;64673;52.276;10.560;2023-07-02T11:18:53;99980.94;;;19.05;47.11
75991;BME280;64673;52.276;10.560;2023-07-02T11:21:18;99969.09;;;19.13;45.80
75991;BME280;64673;52.276;10.560;2023-07-02T11:23:44;99991.09;;;19.41;43.73
75991;BME280;64673;52.276;10.560;2023-07-02T11:26:09;99974.13;;;19.23;43.89
75991;BME280;64673;52.276;10.560;2023-07-02T11:28:35;99968.53;;;19.32;46.15
75991;BME280;64673;52.276;10.560;2023-07-02T11:31:01;99978.38;;;19.57;47.34
75991;BME280;64673;52.276;10.560;2023-07-02T11:35:58;99975.03;;;19.27;46.01
75991;BME280;64673;52.276;10.560;2023-07-02T11:38:24;99982.91;;;19.17;45.67
75991;BME280;64673;52.276;10.560;2023-07-02T11:40:49;99988.00;;;19.18;46.48
75991;BME280;64673;52.276;10.560;2023-07-02T11:43:14;99980.28;;;19.45;46.84
75991;BME280;64673;52.276;10.560;2023-07-02T11:45:41;100015.50;;;19.46;45.49
75991;BME280;64673;52.276;10.560;2023-07-02T11:48:06;99992.25;;;19.52;46.58
75991;BME280;64673;52.276;10.560;2023-07-02T11:50:31;99982.66;;;19.46;45.80
75991;BME280;64673;52.276;10.560;2023-07-02T11:52:57;99992.22;;;19.40;46.88
75991;BME280;64673;52.276;10.560;2023-07-02T11:55:22;99994.53;;;19.38;47.14
75991;BME280;64673;52.276;10.560;2023-07-02T11:57:48;100011.41;;;19.52;46.53
75991;BME280;64673;52.276;10.560;2023-07-02T12:00:14;99986.44;;;19.66;46.78
75991;BME280;64673;52.276;10.560;2023-07-02T12:02:40;100003.91;;;19.49;47.25
75991;BME280;64673;52.276;10.560;2023-07-02T12:05:05;100002.00;;;18.92;47.07
75991;BME280;64673;52.276;10.560;2023-07-02T12:07:31;100011.03;;;18.72;47.65
75991;BME280;64673;52.276;10.560;2023-07-02T12:09:56;100011.41;;;18.83;48.10
75991;BME280;64673;52.276;10.560;2023-07-02T12:12:21;100012.00;;;18.88;45.85
75991;BME280;64673;52.276;10.560;2023-07-02T12:14:46;99998.00;;;18.90;46.36
75991;BME280;64673;52.276;10.560;2023-07-02T12:17:12;100007.94;;;19.31;47.10
75991;BME280;64673;52.276;10.560;2023-07-02T12:19:38;99997.84;;;19.56;46.76
75991;BME280;64673;52.276;10.560;2023-07-02T12:22:04;99992.84;;;20.10;46.50
75991;BME280;64673;52.276;10.560;2023-07-02T12:24:30;99991.06;;;20.42;45.83
75991;BME280;64673;52.276;10.560;2023-07-02T12:26:55;99997.22;;;20.27;44.04
75991;BME280;64673;52.276;10.560;2023-07-02T12:29:20;100003.31;;;19.80;44.66
75991;BME280;64673;52.276;10.560;2023-07-02T12:31:45;99999.53;;;19.60;46.29
75991;BME280;64673;52.276;10.560;2023-07-02T12:34:11;100010.03;;;19.46;46.35
75991;BME280;64673;52.276;10.560;2023-07-02T12:36:36;100014.00;;;19.24;45.08
75991;BME280;64673;52.276;10.560;2023-07-02T12:39:02;100018.88;;;19.31;45.19
75991;BME280;64673;52.276;10.560;2023-07-02T12:41:27;100019.78;;;19.23;45.89
75991;BME280;64673;52.276;10.560;2023-07-02T12:43:56;100042.13;;;19.25;44.08
75991;BME280;64673;52.276;10.560;2023-07-02T12:46:21;100021.41;;;19.85;44.66
75991;BME280;64673;52.276;10.560;2023-07-02T12:48:46;100013.13;;;20.21;44.65
75991;BME280;64673;52.276;10.560;2023-07-02T12:51:12;99998.22;;;20.46;43.40